Shelby, Wisconsin
Current Conditions -  °F | °C
As of 5:53 PM on Saturday 22 Nov 2014 (Local Time) from KLSE Reporting Station
Haze Haze  
Wind Chill: 37°   Ceiling: 300
Heat Index: 40°   Visibility: 2mi
Dew Point: 38°   Wind: 5mph
Humidity: 93%   Direction: 140°SE
Pressure: 29.72"   Gusts: NA
Location:  43.8°N, 91.145°W
Report Text: KLSE 222353Z 14004KT 2SM BR OVC003 04/03 A2972 RMK AO2 SLP072 T00440033 10050 20033 58007
Loading
Personal Weather Stations






























Interactive Weather Map New forecast layout! Learn more

10-Day Weather Forecast

Advertisements
Track Severe Weather on mobile